Time;durP1;ratioP1;P1;durP2;ratioP2;P2;SDS_P1;SDS_P2;PMS_P1;PMS_P2;Temp;Humidity;BMP_temperature;BMP_pressure;BME280_temperature;BME280_humidity;BME280_pressure;Samples;Min_cycle;Max_cycle;Signal;HPM_P1;HPM_P2
2022/03/23 00:00:01;;;;;;;52.33;29.83;;;10.90;22.30;;;;;;5031409;28;25167;-71
2022/03/23 00:02:27;;;;;;;53.38;28.27;;;10.90;22.10;;;;;;5034841;28;25050;-71
2022/03/23 00:04:53;;;;;;;46.58;27.38;;;10.90;22.30;;;;;;5011648;28;25132;-71
2022/03/23 00:07:20;;;;;;;56.08;29.20;;;10.90;22.10;;;;;;5029369;28;25068;-72
2022/03/23 00:09:46;;;;;;;47.80;27.27;;;10.90;22.00;;;;;;5030915;28;25059;-72
2022/03/23 00:12:12;;;;;;;50.05;29.27;;;10.80;22.50;;;;;;5041003;28;25070;-72
2022/03/23 00:14:37;;;;;;;53.15;30.33;;;10.90;22.30;;;;;;5033347;28;25086;-69
2022/03/23 00:17:04;;;;;;;49.88;29.10;;;10.80;23.30;;;;;;5034185;28;25077;-71
2022/03/23 00:19:29;;;;;;;50.08;29.75;;;10.60;23.30;;;;;;5031571;28;25051;-70
2022/03/23 00:21:55;;;;;;;51.20;29.88;;;10.60;23.50;;;;;;5048573;28;25051;-71
2022/03/23 00:24:21;;;;;;;44.28;28.35;;;10.50;24.30;;;;;;5035183;28;25103;-72
2022/03/23 00:26:46;;;;;;;54.33;30.77;;;10.60;24.30;;;;;;5030069;28;25075;-70
2022/03/23 00:29:12;;;;;;;51.17;29.23;;;10.60;24.00;;;;;;5044978;28;25089;-71
2022/03/23 00:31:37;;;;;;;45.55;29.65;;;10.70;23.90;;;;;;5034047;28;25062;-72
2022/03/23 00:34:03;;;;;;;50.25;30.23;;;10.70;24.00;;;;;;5029071;28;25147;-72
2022/03/23 00:36:29;;;;;;;58.80;32.30;;;10.70;24.70;;;;;;5039572;28;25102;-71
2022/03/23 00:38:54;;;;;;;48.33;32.78;;;10.60;24.30;;;;;;5028952;28;25158;-70
2022/03/23 00:41:21;;;;;;;52.15;29.73;;;10.70;24.30;;;;;;5017383;28;25099;-71
2022/03/23 00:43:46;;;;;;;54.65;32.55;;;10.60;24.50;;;;;;5028637;28;25150;-73
2022/03/23 00:46:12;;;;;;;58.33;31.27;;;10.50;24.60;;;;;;5029710;28;25081;-70
2022/03/23 00:48:38;;;;;;;49.50;29.73;;;10.40;25.60;;;;;;5048032;28;25141;-71
2022/03/23 00:51:04;;;;;;;52.92;29.20;;;10.40;25.90;;;;;;5032905;28;25074;-70
2022/03/23 00:53:30;;;;;;;51.00;29.88;;;10.40;26.50;;;;;;5048074;28;25170;-69
2022/03/23 00:55:55;;;;;;;50.78;28.55;;;10.30;26.40;;;;;;5046235;28;25063;-71
2022/03/23 00:58:21;;;;;;;53.60;30.08;;;10.20;26.80;;;;;;5041283;28;25071;-70
2022/03/23 01:00:48;;;;;;;51.58;31.00;;;10.20;27.30;;;;;;5044101;28;25178;-72
2022/03/23 01:03:14;;;;;;;49.17;30.25;;;10.10;27.60;;;;;;5032354;28;25133;-71
2022/03/23 01:05:40;;;;;;;46.92;30.40;;;10.00;29.20;;;;;;5042223;28;25057;-70
2022/03/23 01:08:05;;;;;;;52.35;29.80;;;9.80;30.60;;;;;;5052518;28;25057;-71
2022/03/23 01:10:32;;;;;;;63.40;30.80;;;9.70;33.20;;;;;;5045590;28;25085;-71
2022/03/23 01:12:58;;;;;;;51.92;30.65;;;9.50;34.60;;;;;;5048159;28;25111;-74
2022/03/23 01:15:23;;;;;;;49.28;30.98;;;9.40;36.50;;;;;;5014446;28;25103;-72
2022/03/23 01:17:49;;;;;;;51.22;31.33;;;9.30;38.30;;;;;;5041366;28;25173;-69
2022/03/23 01:20:17;;;;;;;52.83;31.90;;;9.20;38.80;;;;;;5050407;28;25078;-73
2022/03/23 01:22:44;;;;;;;53.38;31.42;;;9.10;39.50;;;;;;5051634;28;25091;-71
2022/03/23 01:25:11;;;;;;;54.83;33.10;;;9.10;40.70;;;;;;5048891;28;25155;-71
2022/03/23 01:27:38;;;;;;;63.72;33.35;;;9.10;42.10;;;;;;5020257;28;25060;-71
2022/03/23 01:30:05;;;;;;;52.67;31.70;;;9.10;41.80;;;;;;5043735;28;25053;-70
2022/03/23 01:32:35;;;;;;;55.38;30.35;;;9.10;41.20;;;;;;5029880;28;25056;-70
2022/03/23 01:35:03;;;;;;;53.95;30.58;;;8.90;42.90;;;;;;5021230;28;25076;-71
2022/03/23 01:37:28;;;;;;;56.42;32.88;;;9.00;43.50;;;;;;5031332;28;25154;-71
2022/03/23 01:39:54;;;;;;;53.20;33.45;;;8.90;43.80;;;;;;5036211;28;25077;-71
2022/03/23 01:42:19;;;;;;;55.85;30.77;;;8.80;44.50;;;;;;5050841;28;25068;-72
2022/03/23 01:44:45;;;;;;;51.58;32.95;;;8.80;45.50;;;;;;5014749;28;25047;-72
2022/03/23 01:47:13;;;;;;;51.50;31.52;;;8.70;46.60;;;;;;5031549;28;25067;-73
2022/03/23 01:49:42;;;;;;;53.17;33.80;;;8.70;47.80;;;;;;5017034;28;25067;-70
2022/03/23 01:52:10;;;;;;;59.97;34.10;;;8.70;47.40;;;;;;5031584;28;24889;-72
2022/03/23 01:54:38;;;;;;;50.03;31.98;;;8.60;49.10;;;;;;5047273;28;25082;-72
2022/03/23 01:57:05;;;;;;;59.05;34.47;;;8.60;49.20;;;;;;5031149;28;25066;-71
2022/03/23 01:59:31;;;;;;;57.45;34.50;;;8.60;49.10;;;;;;5045989;28;25077;-71
2022/03/23 02:01:57;;;;;;;56.00;34.38;;;8.60;49.50;;;;;;5032078;28;25062;-70
2022/03/23 02:04:24;;;;;;;57.50;33.65;;;8.60;50.80;;;;;;5031215;28;25059;-73
2022/03/23 02:06:50;;;;;;;55.40;33.13;;;8.50;51.40;;;;;;5030372;28;25098;-70
2022/03/23 02:09:16;;;;;;;56.22;34.05;;;8.60;51.80;;;;;;5013801;28;25156;-71
2022/03/23 02:11:43;;;;;;;56.72;33.47;;;8.50;52.10;;;;;;5040297;28;25063;-72
2022/03/23 02:14:09;;;;;;;57.67;33.17;;;8.50;52.50;;;;;;5033244;28;25047;-72
2022/03/23 02:16:39;;;;;;;57.15;33.75;;;8.50;52.20;;;;;;5031487;28;25069;-72
2022/03/23 02:19:05;;;;;;;59.95;33.10;;;8.50;52.50;;;;;;5029112;28;25074;-72
2022/03/23 02:21:31;;;;;;;60.83;32.17;;;8.40;52.80;;;;;;5038127;28;25160;-70
2022/03/23 02:23:57;;;;;;;56.15;32.90;;;8.40;53.50;;;;;;5031198;28;25112;-71
2022/03/23 02:26:24;;;;;;;50.85;31.23;;;8.30;53.50;;;;;;5048654;28;25138;-71
2022/03/23 02:28:50;;;;;;;55.15;32.97;;;8.30;53.60;;;;;;5030894;28;25069;-72
2022/03/23 02:31:16;;;;;;;56.35;31.67;;;8.30;53.50;;;;;;5049706;28;25078;-70
2022/03/23 02:33:42;;;;;;;51.72;33.33;;;8.30;53.30;;;;;;5010366;28;25096;-71
2022/03/23 02:36:07;;;;;;;58.05;31.33;;;8.30;53.50;;;;;;5037593;28;25078;-72
2022/03/23 02:38:33;;;;;;;50.75;31.00;;;8.30;53.10;;;;;;5054319;28;25119;-72
2022/03/23 02:40:59;;;;;;;54.17;32.88;;;8.30;53.50;;;;;;5048665;28;25137;-70
2022/03/23 02:43:25;;;;;;;52.88;31.58;;;8.20;53.70;;;;;;5025278;28;25069;-71
2022/03/23 02:45:50;;;;;;;59.10;33.78;;;8.10;54.80;;;;;;5031310;28;25137;-71
2022/03/23 02:48:16;;;;;;;56.53;32.70;;;8.10;55.30;;;;;;5040307;28;25172;-70
2022/03/23 02:50:42;;;;;;;64.15;34.90;;;8.00;55.80;;;;;;5018856;28;25168;-70
2022/03/23 03:02:02;;;;;;;59.03;32.42;;;7.90;57.60;;;;;;5035455;28;25051;-72
2022/03/23 03:04:29;;;;;;;55.03;33.40;;;7.80;57.40;;;;;;5048957;28;25082;-71
2022/03/23 03:06:57;;;;;;;56.08;34.28;;;7.70;58.20;;;;;;5049455;28;25055;-71
2022/03/23 03:09:23;;;;;;;62.10;35.20;;;7.70;58.70;;;;;;5059328;28;25102;-72
2022/03/23 03:11:49;;;;;;;62.75;35.90;;;7.70;58.80;;;;;;5065542;28;25064;-72
2022/03/23 03:14:14;;;;;;;59.40;35.60;;;7.60;59.10;;;;;;5038355;28;25117;-71
2022/03/23 03:16:40;;;;;;;60.95;35.58;;;7.50;59.10;;;;;;5032605;28;25131;-71
2022/03/23 03:19:10;;;;;;;62.95;35.95;;;7.50;59.80;;;;;;5034461;28;25075;-71
2022/03/23 03:21:36;;;;;;;62.35;36.42;;;7.60;59.80;;;;;;5055363;28;25089;-70
2022/03/23 03:24:02;;;;;;;64.07;34.97;;;7.60;60.20;;;;;;5009362;28;25119;-71
2022/03/23 03:26:30;;;;;;;59.00;34.70;;;7.50;60.80;;;;;;5051199;28;25057;-72
2022/03/23 03:28:57;;;;;;;61.22;35.97;;;7.50;61.50;;;;;;5050665;28;25083;-71
2022/03/23 03:31:22;;;;;;;57.03;35.60;;;7.50;61.20;;;;;;5055790;28;25084;-71
2022/03/23 03:33:48;;;;;;;62.08;35.75;;;7.50;61.50;;;;;;5013439;28;25160;-71
2022/03/23 03:36:15;;;;;;;75.03;36.92;;;7.50;61.40;;;;;;5035436;28;25079;-71
2022/03/23 03:38:41;;;;;;;59.92;35.58;;;7.50;61.20;;;;;;5032566;28;25093;-71
2022/03/23 03:41:08;;;;;;;68.45;36.65;;;7.40;62.10;;;;;;5034221;28;25100;-71
2022/03/23 03:43:33;;;;;;;69.82;37.25;;;7.40;61.70;;;;;;5038427;28;25068;-71
2022/03/23 03:46:00;;;;;;;64.93;36.72;;;7.40;62.10;;;;;;5045693;28;25127;-71
2022/03/23 03:48:26;;;;;;;61.33;36.95;;;7.30;62.40;;;;;;5030941;28;25054;-70
2022/03/23 03:50:51;;;;;;;65.53;37.53;;;7.20;63.60;;;;;;5048109;28;25060;-74
2022/03/23 03:53:17;;;;;;;61.00;36.78;;;7.20;64.00;;;;;;5036369;28;25132;-71
2022/03/23 03:55:42;;;;;;;62.00;36.42;;;7.20;64.60;;;;;;5036542;28;25101;-71
2022/03/23 03:58:09;;;;;;;60.90;35.88;;;7.20;65.00;;;;;;5044005;28;25092;-70
2022/03/23 04:00:35;;;;;;;64.85;35.22;;;7.10;65.40;;;;;;5067097;28;25120;-71
2022/03/23 04:03:02;;;;;;;61.88;37.80;;;7.10;65.60;;;;;;5075825;28;25057;-72
2022/03/23 04:05:28;;;;;;;62.85;35.35;;;7.10;64.80;;;;;;5071473;28;25083;-72
2022/03/23 04:07:57;;;;;;;64.03;34.85;;;7.10;65.90;;;;;;5069714;28;25071;-73
2022/03/23 04:10:24;;;;;;;64.90;35.15;;;7.10;65.80;;;;;;5025602;28;25039;-73
2022/03/23 04:12:49;;;;;;;64.45;37.95;;;7.10;66.00;;;;;;5050434;28;25068;-69
2022/03/23 04:15:15;;;;;;;61.92;37.58;;;7.00;66.10;;;;;;5049783;28;25099;-71
2022/03/23 04:17:42;;;;;;;59.88;36.80;;;6.90;66.60;;;;;;5029107;28;25060;-70
2022/03/23 04:20:09;;;;;;;60.63;35.30;;;6.90;67.10;;;;;;5046327;28;25065;-69
2022/03/23 04:22:35;;;;;;;61.78;34.85;;;6.90;67.50;;;;;;5030040;28;25096;-70
2022/03/23 04:25:00;;;;;;;60.25;36.78;;;6.90;67.40;;;;;;5031949;28;25096;-71
2022/03/23 04:27:26;;;;;;;59.53;33.97;;;6.90;67.30;;;;;;5048987;28;25061;-69
2022/03/23 04:29:52;;;;;;;66.25;36.92;;;6.80;67.40;;;;;;5048919;28;25068;-70
2022/03/23 04:32:17;;;;;;;62.30;36.63;;;6.80;68.10;;;;;;5042076;28;25082;-71
2022/03/23 04:34:43;;;;;;;60.97;37.10;;;6.80;68.40;;;;;;5033280;28;25113;-70
2022/03/23 04:37:08;;;;;;;62.90;35.42;;;6.80;68.70;;;;;;5049423;28;25061;-71
2022/03/23 04:39:34;;;;;;;67.32;36.63;;;6.80;68.60;;;;;;5047719;28;25156;-70
2022/03/23 04:42:00;;;;;;;63.17;36.15;;;6.80;68.30;;;;;;5039314;28;25082;-70
2022/03/23 04:44:25;;;;;;;67.55;36.40;;;6.80;68.40;;;;;;5031214;28;25139;-70
2022/03/23 04:46:52;;;;;;;59.50;35.28;;;6.90;67.80;;;;;;5031206;28;25095;-71
2022/03/23 04:49:18;;;;;;;61.38;36.22;;;6.90;67.50;;;;;;5031959;28;25112;-71
2022/03/23 04:51:43;;;;;;;63.63;35.65;;;6.90;67.40;;;;;;5031917;28;25080;-71
2022/03/23 04:54:09;;;;;;;63.75;35.08;;;6.90;67.10;;;;;;5032102;28;25111;-70
2022/03/23 04:56:36;;;;;;;63.70;34.92;;;7.00;67.00;;;;;;5034884;28;25084;-69
2022/03/23 04:59:02;;;;;;;63.92;36.40;;;7.10;67.10;;;;;;5030446;28;25014;-72
2022/03/23 05:01:27;;;;;;;64.47;36.72;;;7.10;65.90;;;;;;5041460;28;25080;-72
2022/03/23 05:03:53;;;;;;;60.22;34.50;;;7.10;66.50;;;;;;5046836;28;25054;-71
2022/03/23 05:06:21;;;;;;;60.65;36.45;;;7.20;65.50;;;;;;5050712;28;25066;-71
2022/03/23 05:08:47;;;;;;;71.32;36.13;;;7.10;64.70;;;;;;5049587;28;25076;-71
2022/03/23 05:11:12;;;;;;;61.13;36.42;;;7.10;64.80;;;;;;5047339;28;25114;-68
2022/03/23 05:13:38;;;;;;;67.57;37.10;;;6.90;65.50;;;;;;5047491;28;25075;-71
2022/03/23 05:16:04;;;;;;;61.17;34.75;;;6.80;66.30;;;;;;5051485;28;25065;-71
2022/03/23 05:18:29;;;;;;;67.55;34.60;;;6.80;66.50;;;;;;5068289;28;25078;-73
2022/03/23 05:20:55;;;;;;;65.70;35.63;;;6.70;67.00;;;;;;5054339;28;25066;-73
2022/03/23 05:23:21;;;;;;;58.05;33.78;;;6.60;67.20;;;;;;5052838;28;25082;-71
2022/03/23 05:25:46;;;;;;;65.18;36.47;;;6.70;68.50;;;;;;5039936;28;25072;-74
2022/03/23 05:28:13;;;;;;;60.38;33.78;;;6.80;67.60;;;;;;5056254;28;25108;-73
2022/03/23 05:30:39;;;;;;;63.03;35.90;;;6.90;66.90;;;;;;5051010;28;25058;-73
2022/03/23 05:33:04;;;;;;;63.47;33.30;;;6.90;65.80;;;;;;5050374;28;25091;-74
2022/03/23 05:35:30;;;;;;;66.60;35.25;;;6.90;65.70;;;;;;5056724;28;25084;-72
2022/03/23 05:37:56;;;;;;;63.92;35.92;;;6.70;66.10;;;;;;5030971;28;25068;-72
2022/03/23 05:40:21;;;;;;;71.18;35.72;;;6.50;67.10;;;;;;5038076;28;25100;-73
2022/03/23 05:42:48;;;;;;;64.80;35.95;;;6.50;67.90;;;;;;5041175;28;25058;-73
2022/03/23 05:45:14;;;;;;;62.42;34.10;;;6.50;67.50;;;;;;5036514;28;25077;-72
2022/03/23 05:47:40;;;;;;;62.95;35.50;;;6.60;67.70;;;;;;5019051;28;25094;-72
2022/03/23 05:50:08;;;;;;;65.90;34.60;;;6.40;67.10;;;;;;5039299;28;25063;-72
2022/03/23 05:52:34;;;;;;;61.65;35.05;;;6.20;68.60;;;;;;5043123;28;25055;-72
2022/03/23 05:55:01;;;;;;;65.53;35.55;;;6.20;68.90;;;;;;5041003;28;25158;-72
2022/03/23 05:57:27;;;;;;;62.63;36.53;;;6.20;69.40;;;;;;5050222;28;25049;-73
2022/03/23 05:59:53;;;;;;;63.20;35.08;;;6.20;70.00;;;;;;5048485;28;25032;-74
2022/03/23 06:02:18;;;;;;;57.80;34.33;;;6.20;70.50;;;;;;5042506;28;25065;-74
2022/03/23 06:04:44;;;;;;;69.85;34.95;;;6.20;70.40;;;;;;5056500;28;25103;-76
2022/03/23 06:07:10;;;;;;;58.50;33.13;;;6.20;70.70;;;;;;5054939;28;25055;-75
2022/03/23 06:09:36;;;;;;;64.07;34.13;;;6.30;70.30;;;;;;5064147;28;25057;-75
2022/03/23 06:12:04;;;;;;;62.85;34.47;;;6.30;70.00;;;;;;5060976;28;25054;-75
2022/03/23 06:14:30;;;;;;;63.03;34.63;;;6.20;70.00;;;;;;5053303;28;25067;-74
2022/03/23 06:16:55;;;;;;;61.35;35.08;;;6.20;70.50;;;;;;5046379;28;25135;-73
2022/03/23 06:19:21;;;;;;;58.58;34.88;;;6.40;70.90;;;;;;5046512;28;25073;-74
2022/03/23 06:21:47;;;;;;;60.63;35.08;;;6.40;70.20;;;;;;5056037;28;25099;-74
2022/03/23 06:24:12;;;;;;;66.18;35.13;;;6.40;69.70;;;;;;5048130;28;25069;-73
2022/03/23 06:26:38;;;;;;;61.05;34.22;;;6.40;70.20;;;;;;5050184;28;25067;-74
2022/03/23 06:29:04;;;;;;;58.78;34.08;;;6.50;70.30;;;;;;5043626;28;25067;-73
2022/03/23 06:31:29;;;;;;;59.92;34.22;;;6.50;70.30;;;;;;5042687;28;25063;-73
2022/03/23 06:33:55;;;;;;;60.55;34.15;;;6.60;70.30;;;;;;5035091;28;25089;-73
2022/03/23 06:36:21;;;;;;;59.15;34.60;;;6.60;69.50;;;;;;5029230;28;25087;-73
2022/03/23 06:38:48;;;;;;;57.65;32.40;;;6.70;69.40;;;;;;5030733;28;25070;-73
2022/03/23 06:41:13;;;;;;;60.42;33.78;;;6.70;69.40;;;;;;5025985;28;25082;-72
2022/03/23 06:43:39;;;;;;;61.58;34.20;;;6.80;69.80;;;;;;5033085;28;25164;-74
2022/03/23 06:46:05;;;;;;;57.60;34.35;;;6.90;69.90;;;;;;5031086;28;25072;-73
2022/03/23 06:48:30;;;;;;;54.53;32.80;;;6.90;68.80;;;;;;5015840;28;25134;-72
2022/03/23 06:50:56;;;;;;;59.38;34.10;;;7.00;68.50;;;;;;5030112;28;25094;-72
2022/03/23 06:53:21;;;;;;;63.50;34.85;;;7.10;68.40;;;;;;5012056;28;25078;-75
2022/03/23 06:55:47;;;;;;;60.08;35.45;;;7.20;68.40;;;;;;5028806;28;25078;-72
2022/03/23 06:58:12;;;;;;;57.08;34.45;;;7.30;68.80;;;;;;5007052;28;25058;-74
2022/03/23 07:00:39;;;;;;;62.20;33.88;;;7.30;68.20;;;;;;5027976;28;25088;-73
2022/03/23 07:03:05;;;;;;;63.58;36.53;;;7.40;68.00;;;;;;5027661;28;25046;-72
2022/03/23 07:05:31;;;;;;;61.40;33.42;;;7.60;68.10;;;;;;5037938;28;25070;-74
2022/03/23 07:10:41;;;;;;;59.17;34.30;;;7.80;67.40;;;;;;5039658;28;25088;-73
2022/03/23 07:13:06;;;;;;;60.20;33.83;;;7.80;67.00;;;;;;5038668;28;25089;-73
2022/03/23 07:15:32;;;;;;;61.95;33.95;;;7.90;66.30;;;;;;5042725;28;25060;-72
2022/03/23 07:17:57;;;;;;;48.72;30.05;;;7.90;63.80;;;;;;5031961;28;25080;-72
2022/03/23 07:20:24;;;;;;;56.45;32.17;;;8.10;61.40;;;;;;5048800;28;25058;-74
2022/03/23 07:22:49;;;;;;;55.30;31.08;;;8.20;59.60;;;;;;5048159;28;25101;-74
2022/03/23 07:25:15;;;;;;;52.53;29.60;;;8.30;58.60;;;;;;5043994;28;25069;-73
2022/03/23 07:27:41;;;;;;;52.22;30.52;;;8.50;57.50;;;;;;5048540;28;25053;-74
2022/03/23 07:30:08;;;;;;;60.33;31.10;;;8.60;55.80;;;;;;5045135;28;25095;-75
2022/03/23 07:32:34;;;;;;;59.15;29.95;;;8.60;53.90;;;;;;5031092;28;25063;-73
2022/03/23 07:35:00;;;;;;;62.60;31.02;;;8.60;53.00;;;;;;5047719;28;25056;-73
2022/03/23 07:37:26;;;;;;;52.20;29.40;;;8.60;51.90;;;;;;5049853;28;25080;-71
2022/03/23 07:39:51;;;;;;;55.42;30.77;;;8.70;51.70;;;;;;5053313;28;25118;-74
2022/03/23 07:42:17;;;;;;;56.53;29.45;;;8.80;51.00;;;;;;5050506;28;25068;-72
2022/03/23 07:44:42;;;;;;;56.15;30.80;;;8.80;50.20;;;;;;5037683;28;25133;-74
2022/03/23 07:47:10;;;;;;;65.95;31.23;;;8.90;50.50;;;;;;5043646;28;25060;-73
2022/03/23 07:49:36;;;;;;;56.05;29.85;;;9.10;50.40;;;;;;5045905;28;25119;-75
2022/03/23 07:52:03;;;;;;;61.10;32.80;;;9.20;49.60;;;;;;5043125;28;25063;-75
2022/03/23 07:54:30;;;;;;;63.58;32.00;;;9.30;48.70;;;;;;5046632;28;25081;-75
2022/03/23 07:56:55;;;;;;;51.92;30.35;;;9.30;47.60;;;;;;5047007;28;25092;-73
2022/03/23 07:59:21;;;;;;;59.85;31.67;;;9.30;46.50;;;;;;5045090;28;25074;-74
2022/03/23 08:01:46;;;;;;;48.35;29.25;;;9.50;46.40;;;;;;5046067;28;25100;-72
2022/03/23 08:04:12;;;;;;;56.58;30.33;;;9.70;45.50;;;;;;5045734;28;25077;-73
2022/03/23 08:06:38;;;;;;;48.92;29.85;;;9.70;44.10;;;;;;5047148;28;25058;-72
2022/03/23 08:09:04;;;;;;;54.00;29.38;;;9.80;44.60;;;;;;5046169;28;25071;-74
2022/03/23 08:11:30;;;;;;;54.10;30.35;;;9.70;43.50;;;;;;5047292;28;25072;-74
2022/03/23 08:13:56;;;;;;;51.45;29.75;;;9.70;43.40;;;;;;5049312;28;25067;-75
2022/03/23 08:16:22;;;;;;;48.03;29.88;;;9.80;43.00;;;;;;5048439;28;25134;-74
2022/03/23 08:18:48;;;;;;;59.58;30.35;;;9.90;43.10;;;;;;5048296;28;25068;-75
2022/03/23 08:21:16;;;;;;;51.97;30.58;;;10.20;42.80;;;;;;5049356;28;25067;-75
2022/03/23 08:23:41;;;;;;;53.45;30.45;;;10.20;40.50;;;;;;5047894;28;25066;-75
2022/03/23 08:26:13;;;;;;;50.83;30.60;;;10.30;40.40;;;;;;5046465;28;25092;-74
2022/03/23 08:28:39;;;;;;;49.38;30.50;;;10.50;40.80;;;;;;5029456;28;25065;-75
2022/03/23 08:31:05;;;;;;;50.35;31.30;;;10.70;38.90;;;;;;5045670;28;25055;-75
2022/03/23 08:33:34;;;;;;;51.47;30.70;;;10.90;39.40;;;;;;5043392;28;25070;-73
2022/03/23 08:36:04;;;;;;;52.50;30.63;;;11.00;37.60;;;;;;5025227;28;25065;-74
2022/03/23 08:38:30;;;;;;;53.10;30.27;;;11.00;35.50;;;;;;5038282;28;25057;-75
2022/03/23 08:40:55;;;;;;;53.80;31.13;;;11.20;35.70;;;;;;5035401;28;25100;-73
2022/03/23 08:43:21;;;;;;;50.70;30.10;;;11.40;34.90;;;;;;5017741;28;25149;-73
2022/03/23 08:45:47;;;;;;;49.53;29.58;;;11.70;33.20;;;;;;5041661;28;25065;-72
2022/03/23 08:48:13;;;;;;;51.75;29.90;;;11.90;31.20;;;;;;5041311;28;25089;-74
2022/03/23 08:50:40;;;;;;;53.40;31.05;;;11.90;30.60;;;;;;5038331;28;25108;-72
2022/03/23 08:53:06;;;;;;;56.30;29.75;;;12.10;28.40;;;;;;5038109;28;25066;-75
2022/03/23 08:55:32;;;;;;;49.72;29.20;;;12.30;26.50;;;;;;5037026;28;25081;-76
2022/03/23 08:57:57;;;;;;;50.20;27.15;;;12.40;24.50;;;;;;5037870;28;25063;-73
2022/03/23 09:00:23;;;;;;;48.47;26.90;;;12.60;21.70;;;;;;5036963;28;25094;-73
2022/03/23 09:02:48;;;;;;;52.92;31.20;;;12.90;22.00;;;;;;5036880;28;25081;-73
2022/03/23 09:05:15;;;;;;;60.20;32.45;;;13.50;23.60;;;;;;5034989;28;25063;-74
2022/03/23 09:07:41;;;;;;;56.78;33.28;;;13.80;21.30;;;;;;5035725;28;25056;-74
2022/03/23 09:10:13;;;;;;;57.83;32.78;;;13.80;21.60;;;;;;5017465;28;25140;-73
2022/03/23 09:12:41;;;;;;;53.88;32.33;;;13.90;22.20;;;;;;5033265;28;25200;-72
2022/03/23 09:15:09;;;;;;;55.78;30.73;;;14.20;20.60;;;;;;5030417;28;25073;-73
2022/03/23 09:17:35;;;;;;;54.17;31.08;;;14.20;19.30;;;;;;5031041;28;25116;-74
2022/03/23 09:20:01;;;;;;;47.80;29.42;;;14.10;17.80;;;;;;5034312;28;25082;-73
2022/03/23 09:22:34;;;;;;;49.63;29.17;;;14.00;16.20;;;;;;5032256;28;25084;-71
2022/03/23 09:25:04;;;;;;;47.80;29.27;;;14.20;16.60;;;;;;5034705;28;25116;-72
2022/03/23 09:27:33;;;;;;;46.05;30.27;;;14.90;13.70;;;;;;5042045;28;25107;-73
2022/03/23 09:29:59;;;;;;;51.38;30.73;;;14.80;13.10;;;;;;5041546;28;25070;-73
2022/03/23 09:32:25;;;;;;;48.63;29.33;;;15.00;10.40;;;;;;5039040;28;25113;-72
2022/03/23 09:34:50;;;;;;;48.42;30.85;;;15.00;12.30;;;;;;5036367;28;25077;-72
2022/03/23 09:40:00;;;;;;;52.53;30.45;;;15.00;14.80;;;;;;5045969;28;25179;-74
2022/03/23 09:42:27;;;;;;;49.33;29.73;;;15.00;11.70;;;;;;5038309;28;25101;-74
2022/03/23 09:44:55;;;;;;;49.20;30.63;;;15.00;12.20;;;;;;5037978;28;25098;-73
2022/03/23 09:47:21;;;;;;;48.22;30.67;;;15.00;10.00;;;;;;5041289;28;25058;-73
2022/03/23 09:49:47;;;;;;;53.60;31.98;;;15.30;11.20;;;;;;5036779;28;25123;-73
2022/03/23 09:52:12;;;;;;;53.15;30.50;;;15.20;13.20;;;;;;5036232;28;25069;-73
2022/03/23 09:54:38;;;;;;;57.35;31.10;;;14.90;12.50;;;;;;5035229;28;25075;-72
2022/03/23 09:57:06;;;;;;;52.10;31.60;;;14.70;15.40;;;;;;5035076;28;25075;-74
2022/03/23 09:59:32;;;;;;;47.47;31.58;;;15.20;15.80;;;;;;5034007;28;25059;-74
2022/03/23 10:02:00;;;;;;;48.15;29.40;;;15.20;15.90;;;;;;5035060;28;25119;-72
2022/03/23 10:05:04;;;;;;;57.53;31.88;;;15.40;11.80;;;;;;5035275;28;25070;-74
2022/03/23 10:07:48;;;;;;;47.53;31.58;;;15.50;10.80;;;;;;5034500;28;25077;-72
2022/03/23 10:10:19;;;;;;;48.03;31.15;;;15.50;9.90;;;;;;5035746;28;25086;-72
2022/03/23 10:13:20;;;;;;;47.03;29.42;;;15.10;8.30;;;;;;5034546;28;25052;-73
2022/03/23 10:16:17;;;;;;;53.83;30.88;;;15.10;10.00;;;;;;5037945;28;25105;-71
2022/03/23 10:18:54;;;;;;;53.38;33.50;;;15.40;8.10;;;;;;5037388;28;25071;-72
2022/03/23 10:21:25;;;;;;;48.55;30.25;;;15.50;7.90;;;;;;5040211;28;25049;-73
2022/03/23 10:24:00;;;;;;;48.80;29.90;;;15.30;6.40;;;;;;5039362;28;25068;-72
2022/03/23 10:26:31;;;;;;;49.75;29.27;;;15.30;6.10;;;;;;5036047;28;25052;-73
2022/03/23 10:28:57;;;;;;;49.78;30.70;;;15.50;5.00;;;;;;5034752;28;25109;-71
2022/03/23 10:31:24;;;;;;;51.60;31.13;;;15.80;3.90;;;;;;5033785;28;25062;-74
2022/03/23 10:34:08;;;;;;;42.58;28.85;;;15.70;2.80;;;;;;5016567;28;25063;-71
2022/03/23 10:36:50;;;;;;;50.40;31.55;;;15.80;2.10;;;;;;5034596;28;25083;-72
2022/03/23 10:39:16;;;;;;;48.72;30.17;;;15.70;3.00;;;;;;5033331;28;25088;-72
2022/03/23 10:41:43;;;;;;;49.22;29.10;;;15.80;2.30;;;;;;5033272;28;25077;-71
2022/03/23 10:44:18;;;;;;;44.22;28.33;;;16.00;1.00;;;;;;5033577;28;25057;-71
2022/03/23 10:46:44;;;;;;;44.50;29.15;;;16.10;1.00;;;;;;5016473;28;25057;-74
2022/03/23 10:49:11;;;;;;;47.25;29.48;;;16.10;1.00;;;;;;5033617;28;25058;-72
2022/03/23 10:51:37;;;;;;;44.45;27.92;;;16.50;1.00;;;;;;5016227;28;25224;-71
2022/03/23 10:54:18;;;;;;;40.97;27.30;;;16.60;1.00;;;;;;5033675;28;25083;-71
2022/03/23 10:56:44;;;;;;;40.42;27.40;;;16.90;1.00;;;;;;5034791;28;25069;-74
2022/03/23 10:59:15;;;;;;;35.92;26.65;;;17.30;1.00;;;;;;5033956;28;25138;-75
2022/03/23 11:02:01;;;;;;;37.93;25.40;;;17.30;1.00;;;;;;5033066;28;25151;-73
2022/03/23 11:04:29;;;;;;;37.80;25.52;;;17.40;1.00;;;;;;5032738;28;25068;-72
2022/03/23 11:06:56;;;;;;;42.17;26.48;;;17.50;1.00;;;;;;5033873;28;25082;-72
2022/03/23 11:18:11;;;;;;;39.80;28.38;;;18.50;1.00;;;;;;5043429;28;25062;-71
2022/03/23 11:20:47;;;;;;;48.40;30.27;;;18.80;1.00;;;;;;5046835;28;25099;-74
2022/03/23 11:23:27;;;;;;;47.63;30.80;;;18.70;1.00;;;;;;5041788;28;25055;-72
2022/03/23 11:26:01;;;;;;;44.17;30.52;;;18.50;1.00;;;;;;5032006;28;25096;-72
2022/03/23 11:28:35;;;;;;;49.25;31.35;;;18.70;1.00;;;;;;5032821;28;25066;-72
2022/03/23 11:31:04;;;;;;;46.65;32.05;;;18.80;1.00;;;;;;5031746;28;25163;-72
2022/03/23 11:33:34;;;;;;;49.35;32.85;;;18.70;1.00;;;;;;5013638;28;25067;-71
2022/03/23 11:36:05;;;;;;;53.22;31.38;;;18.50;1.00;;;;;;5032441;28;25108;-72
2022/03/23 11:38:33;;;;;;;45.53;30.77;;;18.90;1.00;;;;;;5032932;28;25063;-71
2022/03/23 11:40:59;;;;;;;48.50;31.85;;;18.90;1.00;;;;;;5033184;28;25070;-69
2022/03/23 11:43:36;;;;;;;51.25;31.83;;;18.80;1.00;;;;;;5041923;28;25063;-70
2022/03/23 11:46:04;;;;;;;46.70;32.88;;;19.10;1.00;;;;;;5039993;28;25052;-73
2022/03/23 11:48:41;;;;;;;47.80;31.90;;;18.90;1.00;;;;;;5057000;28;25048;-74
2022/03/23 11:51:09;;;;;;;53.38;32.53;;;18.50;1.00;;;;;;5055886;28;25077;-73
2022/03/23 11:53:47;;;;;;;56.22;32.60;;;18.80;1.00;;;;;;5053644;28;25064;-73
2022/03/23 11:56:22;;;;;;;48.60;31.40;;;18.70;1.00;;;;;;5044172;28;25085;-72
2022/03/23 11:58:47;;;;;;;50.10;32.50;;;19.60;1.00;;;;;;5033045;28;25078;-72
2022/03/23 12:01:14;;;;;;;46.67;31.30;;;19.50;1.00;;;;;;5032033;28;25073;-72
2022/03/23 12:04:02;;;;;;;50.50;33.65;;;19.50;1.00;;;;;;5031186;28;25082;-72
2022/03/23 12:06:41;;;;;;;52.25;33.42;;;19.20;1.00;;;;;;5032849;28;25083;-72
2022/03/23 12:09:07;;;;;;;49.72;32.30;;;19.20;1.00;;;;;;5030077;28;25083;-71
2022/03/23 12:11:53;;;;;;;48.45;32.10;;;19.30;1.00;;;;;;5028537;28;25080;-70
2022/03/23 12:14:32;;;;;;;53.15;32.63;;;20.30;1.00;;;;;;5028773;28;25082;-72
2022/03/23 12:17:07;;;;;;;48.40;32.88;;;20.70;1.00;;;;;;5027904;28;25068;-72
2022/03/23 12:20:07;;;;;;;45.95;32.45;;;20.80;1.00;;;;;;5029073;28;25082;-71
2022/03/23 12:22:32;;;;;;;47.33;30.83;;;20.20;1.00;;;;;;5014574;28;25091;-71
2022/03/23 12:25:13;;;;;;;53.78;33.20;;;19.90;1.00;;;;;;5010653;28;25100;-71
2022/03/23 12:28:04;;;;;;;47.00;32.22;;;19.90;1.00;;;;;;5029741;28;25064;-71
2022/03/23 12:30:30;;;;;;;51.13;31.58;;;20.10;1.00;;;;;;5027667;28;25075;-71
2022/03/23 12:32:57;;;;;;;48.97;31.75;;;19.80;1.00;;;;;;5027244;28;25075;-72
2022/03/23 12:35:31;;;;;;;50.83;31.58;;;20.40;1.00;;;;;;5028082;28;25082;-73
2022/03/23 12:38:02;;;;;;;47.45;30.92;;;21.00;1.00;;;;;;5028551;28;25144;-72
2022/03/23 12:40:43;;;;;;;45.05;31.23;;;21.60;1.00;;;;;;5028157;28;25083;-73
2022/03/23 12:43:09;;;;;;;43.75;32.25;;;21.60;1.00;;;;;;5027511;28;25077;-74
2022/03/23 12:45:39;;;;;;;43.83;30.13;;;21.50;1.00;;;;;;5009446;28;25071;-75
2022/03/23 12:59:25;;;;;;;49.63;31.73;;;21.30;1.00;;;;;;5027540;28;25064;-71
2022/03/23 13:01:55;;;;;;;42.80;30.65;;;21.30;1.00;;;;;;5027043;28;25051;-73
2022/03/23 13:04:42;;;;;;;47.17;32.22;;;21.10;1.00;;;;;;5031286;28;25070;-72
2022/03/23 13:07:29;;;;;;;48.20;31.25;;;20.80;1.00;;;;;;5031651;28;25060;-71
2022/03/23 13:10:05;;;;;;;42.67;28.13;;;20.30;1.00;;;;;;5012905;28;25143;-71
2022/03/23 13:12:31;;;;;;;39.63;28.83;;;20.60;1.00;;;;;;5031317;28;25072;-72